Time;durP1;ratioP1;P1;durP2;ratioP2;P2;SDS_P1;SDS_P2;PMS_P1;PMS_P2;Temp;Humidity;BMP_temperature;BMP_pressure;BME280_temperature;BME280_humidity;BME280_pressure;Samples;Min_cycle;Max_cycle;Signal;HPM_P1;HPM_P2
2023/08/01 00:00:48;;;;;;;15.30;6.03;;;16.70;99.90;;;;;;5083926;28;20052;-59
2023/08/01 00:03:14;;;;;;;19.23;6.60;;;16.70;99.90;;;;;;5082402;28;20040;-58
2023/08/01 00:05:44;;;;;;;21.95;6.55;;;16.70;99.90;;;;;;5082753;28;20150;-59
2023/08/01 00:08:12;;;;;;;12.57;6.15;;;16.70;99.90;;;;;;5083810;28;20060;-59
2023/08/01 00:10:38;;;;;;;17.65;6.32;;;16.60;99.90;;;;;;5082211;28;20043;-59
2023/08/01 00:13:04;;;;;;;20.23;6.65;;;16.60;99.90;;;;;;5084140;28;20033;-59
2023/08/01 00:15:30;;;;;;;16.98;6.18;;;16.60;99.90;;;;;;5082546;28;20055;-59
2023/08/01 00:17:56;;;;;;;11.18;5.68;;;16.60;99.90;;;;;;5083589;28;20044;-58
2023/08/01 00:20:21;;;;;;;15.32;5.90;;;16.60;99.90;;;;;;5083314;28;20048;-58
2023/08/01 00:22:47;;;;;;;18.25;5.72;;;16.60;99.90;;;;;;5082382;28;20106;-59
2023/08/01 00:25:13;;;;;;;12.77;5.65;;;16.60;99.90;;;;;;5083587;28;20127;-59
2023/08/01 00:27:39;;;;;;;15.18;5.25;;;16.60;99.90;;;;;;5081971;28;20123;-59
2023/08/01 00:30:05;;;;;;;15.27;5.95;;;16.60;99.90;;;;;;5083938;28;20101;-58
2023/08/01 00:32:31;;;;;;;21.63;6.40;;;16.60;99.90;;;;;;5081948;28;20516;-58
2023/08/01 00:34:57;;;;;;;14.73;5.32;;;16.60;99.90;;;;;;5083315;28;20048;-58
2023/08/01 00:37:23;;;;;;;20.42;5.50;;;16.50;99.90;;;;;;5082774;28;20036;-58
2023/08/01 00:39:48;;;;;;;20.95;5.57;;;16.50;99.90;;;;;;5082477;28;20142;-58
2023/08/01 00:42:14;;;;;;;12.25;5.05;;;16.50;99.90;;;;;;5081636;28;20141;-58
2023/08/01 00:44:40;;;;;;;11.32;5.43;;;16.50;99.90;;;;;;5080686;28;20052;-58
2023/08/01 00:47:07;;;;;;;17.35;5.32;;;16.50;99.90;;;;;;5083516;28;20666;-59
2023/08/01 00:49:32;;;;;;;14.02;5.25;;;16.50;99.90;;;;;;5080618;28;20100;-58
2023/08/01 00:51:58;;;;;;;21.23;6.38;;;16.50;99.90;;;;;;5083480;28;20047;-61
2023/08/01 00:54:25;;;;;;;17.58;5.38;;;16.50;99.90;;;;;;5081029;28;20592;-58
2023/08/01 00:56:51;;;;;;;15.15;6.18;;;16.40;99.90;;;;;;5082075;28;20043;-58
2023/08/01 00:59:16;;;;;;;13.35;5.93;;;16.50;99.90;;;;;;5082958;28;20037;-59
2023/08/01 01:01:42;;;;;;;15.60;5.60;;;16.50;99.90;;;;;;5080238;28;20036;-58
2023/08/01 01:04:08;;;;;;;23.52;6.15;;;16.40;99.90;;;;;;5083171;28;20045;-59
2023/08/01 01:06:46;;;;;;;19.65;6.43;;;16.40;99.90;;;;;;5081025;28;20048;-58
2023/08/01 01:09:19;;;;;;;16.60;6.00;;;16.30;99.90;;;;;;5082541;28;20107;-59
2023/08/01 01:11:45;;;;;;;17.42;6.60;;;16.30;99.90;;;;;;5082204;28;20060;-58
2023/08/01 01:14:11;;;;;;;19.77;6.55;;;16.30;99.90;;;;;;5081529;28;20116;-59
2023/08/01 01:16:37;;;;;;;18.70;6.47;;;16.30;99.90;;;;;;5082607;28;20037;-58
2023/08/01 01:19:07;;;;;;;19.08;6.40;;;16.30;99.90;;;;;;5081120;28;20118;-59
2023/08/01 01:21:37;;;;;;;15.32;5.78;;;16.20;99.90;;;;;;5082861;28;20565;-58
2023/08/01 01:24:05;;;;;;;15.18;6.28;;;16.20;99.90;;;;;;5081314;28;20048;-58
2023/08/01 01:26:32;;;;;;;18.08;6.28;;;16.20;99.90;;;;;;5081996;28;20063;-58
2023/08/01 01:28:59;;;;;;;18.40;6.22;;;16.20;99.90;;;;;;5082179;28;20048;-58
2023/08/01 01:31:25;;;;;;;15.30;6.15;;;16.10;99.90;;;;;;5081011;28;20040;-59
2023/08/01 01:33:51;;;;;;;15.30;5.80;;;16.10;99.90;;;;;;5082188;28;20076;-58
2023/08/01 01:36:16;;;;;;;20.52;6.38;;;16.10;99.90;;;;;;5080549;28;20052;-58
2023/08/01 01:38:42;;;;;;;15.25;5.68;;;16.10;99.90;;;;;;5082769;28;20486;-58
2023/08/01 01:41:08;;;;;;;17.25;5.32;;;16.00;99.90;;;;;;5080889;28;20033;-59
2023/08/01 01:43:33;;;;;;;17.23;5.28;;;16.00;99.90;;;;;;5080592;28;20111;-58
2023/08/01 01:45:59;;;;;;;22.40;5.88;;;16.00;99.90;;;;;;5080448;28;20048;-58
2023/08/01 01:48:25;;;;;;;18.48;4.75;;;16.00;99.90;;;;;;5081059;28;20047;-58
2023/08/01 01:50:50;;;;;;;13.27;4.93;;;15.90;99.90;;;;;;5082096;28;20060;-59
2023/08/01 01:53:16;;;;;;;10.98;4.90;;;15.90;99.90;;;;;;5080426;28;20051;-59
2023/08/01 01:55:42;;;;;;;15.65;4.82;;;15.90;99.90;;;;;;5082197;28;20075;-59
2023/08/01 01:58:08;;;;;;;17.40;4.88;;;16.00;99.90;;;;;;5080240;28;20044;-59
2023/08/01 02:00:34;;;;;;;11.05;4.93;;;15.90;99.90;;;;;;5081777;28;20101;-58
2023/08/01 02:03:01;;;;;;;16.35;4.97;;;15.90;99.90;;;;;;5081207;28;20488;-58
2023/08/01 02:05:26;;;;;;;14.73;4.50;;;15.90;99.90;;;;;;5079163;28;20048;-59
2023/08/01 02:07:52;;;;;;;22.50;5.18;;;15.90;99.90;;;;;;5081513;28;20420;-59
2023/08/01 02:10:18;;;;;;;12.93;5.38;;;15.90;99.90;;;;;;5080249;28;20105;-58
2023/08/01 02:12:43;;;;;;;16.23;4.38;;;15.90;99.90;;;;;;5081472;28;20052;-58
2023/08/01 02:15:09;;;;;;;14.48;5.18;;;15.90;99.90;;;;;;5079824;28;20047;-59
2023/08/01 02:17:35;;;;;;;14.73;5.22;;;15.90;99.90;;;;;;5081827;28;20055;-59
2023/08/01 02:20:00;;;;;;;19.10;5.97;;;15.90;99.90;;;;;;5080490;28;20548;-58
2023/08/01 02:22:27;;;;;;;12.38;5.25;;;15.90;99.90;;;;;;5080713;28;20076;-58
2023/08/01 02:24:52;;;;;;;13.73;4.85;;;16.10;99.90;;;;;;5081117;28;20040;-59
2023/08/01 02:27:18;;;;;;;18.05;5.32;;;15.90;99.90;;;;;;5079966;28;20056;-58
2023/08/01 02:29:44;;;;;;;16.27;5.65;;;15.90;99.90;;;;;;5080277;28;20090;-58
2023/08/01 02:32:10;;;;;;;17.42;5.35;;;15.80;99.90;;;;;;5078421;28;20072;-59
2023/08/01 02:34:35;;;;;;;16.75;5.78;;;15.80;99.90;;;;;;5081341;28;20096;-57
2023/08/01 02:37:01;;;;;;;14.25;5.18;;;15.80;99.90;;;;;;5080076;28;20095;-59
2023/08/01 02:39:27;;;;;;;19.17;6.57;;;15.80;99.90;;;;;;5080613;28;20048;-58
2023/08/01 02:41:52;;;;;;;17.30;6.10;;;15.70;99.90;;;;;;5080798;28;20123;-59
2023/08/01 02:44:18;;;;;;;15.73;6.18;;;15.70;99.90;;;;;;5079851;28;20040;-59
2023/08/01 02:46:43;;;;;;;13.65;6.00;;;15.60;99.90;;;;;;5081050;28;20051;-59
2023/08/01 02:49:09;;;;;;;19.27;5.95;;;15.60;99.90;;;;;;5077851;28;20045;-59
2023/08/01 02:51:35;;;;;;;15.02;5.70;;;15.60;99.90;;;;;;5081484;28;20062;-59
2023/08/01 02:54:00;;;;;;;17.48;5.20;;;15.60;99.90;;;;;;5079658;28;20041;-59
2023/08/01 02:56:27;;;;;;;17.20;5.93;;;15.60;99.90;;;;;;5080693;28;20116;-59
2023/08/01 02:58:55;;;;;;;20.52;6.10;;;15.50;99.90;;;;;;5080634;28;20100;-58
2023/08/01 03:01:20;;;;;;;13.85;6.10;;;15.60;99.90;;;;;;5079551;28;20070;-59
2023/08/01 03:03:46;;;;;;;25.40;6.40;;;15.50;99.90;;;;;;5079085;28;20045;-58
2023/08/01 03:06:12;;;;;;;16.08;5.65;;;15.50;99.90;;;;;;5079279;28;20037;-59
2023/08/01 03:08:38;;;;;;;15.68;5.45;;;15.50;99.90;;;;;;5079365;28;20094;-59
2023/08/01 03:11:05;;;;;;;17.95;5.72;;;15.50;99.90;;;;;;5079374;28;20048;-58
2023/08/01 03:13:30;;;;;;;16.25;6.20;;;15.50;99.90;;;;;;5080037;28;20046;-59
2023/08/01 03:15:56;;;;;;;20.30;6.45;;;15.50;99.90;;;;;;5080342;28;20072;-58
2023/08/01 03:18:22;;;;;;;18.45;6.13;;;15.50;99.90;;;;;;5079412;28;20116;-58
2023/08/01 03:20:48;;;;;;;23.48;6.28;;;15.50;99.90;;;;;;5079262;28;20052;-59
2023/08/01 03:23:13;;;;;;;17.65;6.40;;;15.50;99.90;;;;;;5079290;28;20090;-60
2023/08/01 03:25:39;;;;;;;19.77;5.88;;;15.50;99.90;;;;;;5080594;28;20044;-57
2023/08/01 03:28:05;;;;;;;13.63;5.45;;;15.50;99.90;;;;;;5079076;28;20055;-61
2023/08/01 03:30:32;;;;;;;13.55;4.38;;;15.50;99.90;;;;;;5080778;28;20084;-60
2023/08/01 03:32:59;;;;;;;7.40;3.15;;;15.50;99.90;;;;;;5079688;28;20040;-59
2023/08/01 03:35:25;;;;;;;6.80;2.58;;;15.50;99.90;;;;;;5078215;28;20040;-59
2023/08/01 03:37:50;;;;;;;5.93;2.10;;;15.40;99.90;;;;;;5062264;28;20040;-60
2023/08/01 03:40:16;;;;;;;7.30;1.92;;;15.40;99.90;;;;;;5078967;28;20082;-59
2023/08/01 03:42:43;;;;;;;4.22;1.90;;;15.30;99.90;;;;;;5078946;28;20156;-59
2023/08/01 03:45:10;;;;;;;7.15;2.25;;;15.30;99.90;;;;;;5078542;28;20051;-59
2023/08/01 03:47:35;;;;;;;5.68;2.10;;;15.30;99.90;;;;;;5080353;28;20436;-58
2023/08/01 03:50:02;;;;;;;5.82;1.95;;;15.20;99.90;;;;;;5079692;28;20041;-58
2023/08/01 03:52:28;;;;;;;4.72;2.13;;;15.20;99.90;;;;;;5079460;28;20067;-57
2023/08/01 03:54:55;;;;;;;5.40;2.00;;;15.20;99.90;;;;;;5080138;28;20044;-58
2023/08/01 03:57:21;;;;;;;6.20;2.05;;;15.20;99.90;;;;;;5079048;28;20087;-59
2023/08/01 03:59:47;;;;;;;6.47;2.05;;;15.20;99.90;;;;;;5080492;28;20049;-58
2023/08/01 04:02:12;;;;;;;7.38;2.03;;;15.20;99.90;;;;;;5077314;28;20049;-58
2023/08/01 04:04:38;;;;;;;3.75;2.13;;;15.10;99.90;;;;;;5080458;28;20067;-59
2023/08/01 04:07:04;;;;;;;4.95;1.85;;;15.10;99.90;;;;;;5079200;28;20041;-58
2023/08/01 04:09:30;;;;;;;5.22;2.20;;;15.10;99.90;;;;;;5079356;28;20051;-58
2023/08/01 04:11:55;;;;;;;6.28;2.10;;;15.10;99.90;;;;;;5079690;28;20045;-60
2023/08/01 04:14:21;;;;;;;3.25;2.08;;;15.10;99.90;;;;;;5078682;28;20041;-58
2023/08/01 04:16:47;;;;;;;3.88;1.98;;;15.10;99.90;;;;;;5080014;28;20040;-58
2023/08/01 04:19:13;;;;;;;7.30;2.67;;;15.10;99.90;;;;;;5078592;28;20041;-59
2023/08/01 04:21:38;;;;;;;5.45;2.50;;;15.10;99.90;;;;;;5080576;28;20138;-59
2023/08/01 04:24:04;;;;;;;5.85;2.33;;;15.10;99.90;;;;;;5078792;28;20131;-58
2023/08/01 04:26:30;;;;;;;6.43;2.60;;;15.10;99.90;;;;;;5082810;28;20045;-59
2023/08/01 04:28:56;;;;;;;5.63;2.50;;;15.10;99.90;;;;;;5083590;28;20055;-58
2023/08/01 04:31:21;;;;;;;7.03;2.55;;;15.10;99.90;;;;;;5082153;28;20072;-59
2023/08/01 04:33:47;;;;;;;4.80;2.40;;;15.10;99.90;;;;;;5083624;28;20048;-58
2023/08/01 04:36:13;;;;;;;5.63;2.78;;;15.10;99.90;;;;;;5081963;28;20047;-59
2023/08/01 04:38:38;;;;;;;4.57;2.75;;;15.20;99.90;;;;;;5083850;28;20539;-58
2023/08/01 04:41:04;;;;;;;5.10;2.78;;;15.20;99.90;;;;;;5080809;28;20059;-59
2023/08/01 04:43:30;;;;;;;5.47;2.55;;;15.20;99.90;;;;;;5081581;28;20029;-58
2023/08/01 04:45:55;;;;;;;6.38;2.60;;;15.30;99.90;;;;;;5082699;28;20104;-58
2023/08/01 04:48:21;;;;;;;8.80;2.95;;;15.30;99.90;;;;;;5082151;28;20041;-58
2023/08/01 04:50:47;;;;;;;6.22;2.50;;;15.30;99.90;;;;;;5083235;28;20074;-58
2023/08/01 04:53:12;;;;;;;4.43;2.30;;;15.30;99.90;;;;;;5081730;28;20051;-59
2023/08/01 04:55:38;;;;;;;7.05;2.80;;;15.30;99.90;;;;;;5083401;28;20040;-58
2023/08/01 04:58:04;;;;;;;6.65;2.60;;;15.30;99.90;;;;;;5081779;28;20037;-58
2023/08/01 05:00:30;;;;;;;4.53;2.72;;;15.30;99.90;;;;;;5083056;28;20044;-58
2023/08/01 05:02:55;;;;;;;11.02;2.90;;;15.30;99.90;;;;;;5080932;28;20079;-58
2023/08/01 05:05:21;;;;;;;6.07;3.05;;;15.30;99.90;;;;;;5082052;28;20048;-59
2023/08/01 05:07:47;;;;;;;6.63;2.90;;;15.40;99.90;;;;;;5082625;28;20048;-58
2023/08/01 05:10:12;;;;;;;7.30;3.50;;;15.40;99.90;;;;;;5081487;28;20048;-58
2023/08/01 05:12:38;;;;;;;9.13;3.58;;;15.30;99.90;;;;;;5082778;28;20036;-58
2023/08/01 05:15:04;;;;;;;8.80;3.40;;;15.30;99.90;;;;;;5080833;28;20045;-59
2023/08/01 05:17:30;;;;;;;9.60;3.47;;;15.30;99.90;;;;;;5082927;28;20040;-59
2023/08/01 05:19:55;;;;;;;12.73;3.60;;;15.30;99.90;;;;;;5081722;28;20094;-59
2023/08/01 05:22:21;;;;;;;8.32;3.40;;;15.30;99.90;;;;;;5082002;28;20040;-59
2023/08/01 05:24:47;;;;;;;9.23;3.15;;;15.30;99.90;;;;;;5082364;28;20100;-58
2023/08/01 05:27:13;;;;;;;11.18;3.70;;;15.30;99.90;;;;;;5081344;28;20580;-59
2023/08/01 05:29:38;;;;;;;10.70;3.20;;;15.30;99.90;;;;;;5081088;28;20048;-59
2023/08/01 05:32:04;;;;;;;6.55;2.85;;;15.30;99.90;;;;;;5080927;28;20093;-59
2023/08/01 05:34:30;;;;;;;5.53;2.50;;;15.30;99.90;;;;;;5081441;28;20058;-59
2023/08/01 05:36:55;;;;;;;10.45;2.47;;;15.30;99.90;;;;;;5080880;28;20041;-58
2023/08/01 05:39:21;;;;;;;6.80;2.75;;;15.20;99.90;;;;;;5080633;28;20075;-58
2023/08/01 05:41:47;;;;;;;5.95;2.90;;;15.20;99.90;;;;;;5081714;28;20092;-58
2023/08/01 05:44:12;;;;;;;8.02;2.88;;;15.20;99.90;;;;;;5079260;28;20522;-59
2023/08/01 05:46:38;;;;;;;8.77;2.95;;;15.20;99.90;;;;;;5080812;28;20116;-58
2023/08/01 05:49:03;;;;;;;10.43;3.20;;;15.20;99.90;;;;;;5079210;28;20530;-60
2023/08/01 05:51:29;;;;;;;7.43;3.20;;;15.20;99.90;;;;;;5082338;28;20079;-60
2023/08/01 05:53:55;;;;;;;6.57;3.10;;;15.20;99.90;;;;;;5080566;28;20052;-60
2023/08/01 05:56:20;;;;;;;8.30;3.05;;;15.20;99.90;;;;;;5081678;28;20053;-60
2023/08/01 05:58:46;;;;;;;7.90;3.35;;;15.20;99.90;;;;;;5081547;28;20099;-60
2023/08/01 06:01:12;;;;;;;7.18;3.30;;;15.20;99.90;;;;;;5080847;28;20070;-59
2023/08/01 06:03:38;;;;;;;8.38;2.92;;;15.20;99.90;;;;;;5081739;28;20899;-58
2023/08/01 06:06:04;;;;;;;9.73;3.53;;;15.20;99.90;;;;;;5080150;28;20127;-58
2023/08/01 06:08:30;;;;;;;4.55;2.50;;;15.20;99.90;;;;;;5081961;28;20060;-57
2023/08/01 06:10:56;;;;;;;5.78;2.53;;;15.30;99.90;;;;;;5080315;28;20036;-58
2023/08/01 06:13:22;;;;;;;7.25;2.53;;;15.30;99.90;;;;;;5081083;28;20382;-59
2023/08/01 06:15:47;;;;;;;4.00;2.00;;;15.30;99.90;;;;;;5080892;28;20048;-58
2023/08/01 06:18:13;;;;;;;4.93;2.50;;;15.30;99.90;;;;;;5062386;28;20072;-58
2023/08/01 06:20:39;;;;;;;6.55;2.30;;;15.30;99.90;;;;;;5081346;28;20096;-60
2023/08/01 06:23:05;;;;;;;7.22;2.70;;;15.30;99.90;;;;;;5079909;28;20041;-58
2023/08/01 06:25:31;;;;;;;4.82;2.30;;;15.30;99.90;;;;;;5080172;28;20048;-59
2023/08/01 06:27:57;;;;;;;6.43;2.42;;;15.30;99.90;;;;;;5079613;28;20045;-58
2023/08/01 06:30:23;;;;;;;8.23;2.60;;;15.30;99.90;;;;;;5081619;28;20052;-59
2023/08/01 06:32:49;;;;;;;6.43;2.40;;;15.40;99.90;;;;;;5080569;28;20049;-58
2023/08/01 06:35:14;;;;;;;5.13;2.38;;;15.40;99.90;;;;;;5080321;28;20036;-58
2023/08/01 06:37:40;;;;;;;6.80;2.75;;;15.40;99.90;;;;;;5079663;28;20051;-59
2023/08/01 06:40:07;;;;;;;7.35;2.33;;;15.40;99.90;;;;;;5078283;28;20040;-59
2023/08/01 06:42:33;;;;;;;5.85;2.28;;;15.40;99.90;;;;;;5081052;28;20369;-59
2023/08/01 06:44:59;;;;;;;7.45;2.67;;;15.40;99.90;;;;;;5079475;28;20076;-59
2023/08/01 06:47:24;;;;;;;8.45;2.70;;;15.40;99.90;;;;;;5080757;28;20036;-59
2023/08/01 06:49:50;;;;;;;5.53;2.25;;;15.40;99.90;;;;;;5078641;28;20416;-58
2023/08/01 06:52:16;;;;;;;7.60;2.85;;;15.40;99.90;;;;;;5080298;28;20040;-58
2023/08/01 06:54:42;;;;;;;8.60;2.75;;;15.40;99.90;;;;;;5080782;28;20043;-59
2023/08/01 06:57:08;;;;;;;9.88;3.03;;;15.40;99.90;;;;;;5078170;28;20066;-59
2023/08/01 06:59:33;;;;;;;11.38;3.30;;;15.40;99.90;;;;;;5081093;28;20045;-59
2023/08/01 07:02:00;;;;;;;10.75;3.30;;;15.40;99.90;;;;;;5077924;28;20044;-59
2023/08/01 07:04:26;;;;;;;8.13;3.10;;;15.50;99.90;;;;;;5081096;28;20052;-58
2023/08/01 07:06:53;;;;;;;10.48;3.00;;;15.60;99.90;;;;;;5079631;28;20075;-58
2023/08/01 07:09:19;;;;;;;7.95;3.33;;;15.70;99.90;;;;;;5080079;28;20060;-58
2023/08/01 07:11:44;;;;;;;7.07;2.80;;;15.90;99.90;;;;;;5080058;28;20060;-59
2023/08/01 07:14:10;;;;;;;9.18;2.67;;;16.00;99.90;;;;;;5079436;28;20036;-58
2023/08/01 07:16:36;;;;;;;10.35;3.20;;;16.10;99.90;;;;;;5080965;28;20060;-59
2023/08/01 07:19:01;;;;;;;7.30;3.25;;;16.20;99.90;;;;;;5079078;28;20048;-58
2023/08/01 07:21:28;;;;;;;6.35;2.95;;;16.20;99.90;;;;;;5081002;28;20431;-58
2023/08/01 07:23:54;;;;;;;11.40;3.70;;;16.30;99.90;;;;;;5079447;28;20044;-58
2023/08/01 07:26:20;;;;;;;10.98;3.58;;;16.30;99.90;;;;;;5080004;28;20055;-58
2023/08/01 07:28:46;;;;;;;8.18;3.20;;;16.30;99.90;;;;;;5080242;28;20548;-58
2023/08/01 07:31:11;;;;;;;9.82;3.13;;;16.30;99.90;;;;;;5079169;28;20057;-58
2023/08/01 07:33:37;;;;;;;10.55;3.28;;;16.40;99.90;;;;;;5080338;28;20058;-58
2023/08/01 07:36:03;;;;;;;10.55;3.85;;;16.30;99.90;;;;;;5079096;28;20075;-58
2023/08/01 07:38:31;;;;;;;9.13;2.92;;;16.30;99.90;;;;;;5080687;28;20044;-58
2023/08/01 07:40:57;;;;;;;11.60;3.75;;;16.30;99.90;;;;;;5078820;28;20048;-57
2023/08/01 07:43:23;;;;;;;8.13;3.60;;;16.30;99.90;;;;;;5079969;28;20494;-59
2023/08/01 07:45:50;;;;;;;11.35;3.58;;;16.30;99.90;;;;;;5079934;28;20047;-58
2023/08/01 07:48:16;;;;;;;11.63;3.80;;;16.30;99.90;;;;;;5079236;28;20052;-58
2023/08/01 07:50:42;;;;;;;12.90;3.53;;;16.30;99.90;;;;;;5080263;28;20053;-58
2023/08/01 07:53:07;;;;;;;15.90;3.78;;;16.20;99.90;;;;;;5078846;28;20491;-59
2023/08/01 07:55:34;;;;;;;13.68;3.55;;;16.20;99.90;;;;;;5080671;28;20141;-59
2023/08/01 07:58:00;;;;;;;11.77;3.40;;;16.20;99.90;;;;;;5078782;28;20044;-59
2023/08/01 08:00:26;;;;;;;17.80;4.60;;;16.20;99.90;;;;;;5083734;28;20083;-59
2023/08/01 08:02:53;;;;;;;15.40;3.90;;;16.20;99.90;;;;;;5082037;28;20123;-59
2023/08/01 08:05:19;;;;;;;11.95;4.20;;;16.10;99.90;;;;;;5082903;28;20389;-59
2023/08/01 08:07:45;;;;;;;13.73;4.18;;;16.20;99.90;;;;;;5083712;28;20101;-58
2023/08/01 08:10:10;;;;;;;16.95;4.35;;;16.20;99.90;;;;;;5082203;28;20052;-57
2023/08/01 08:12:36;;;;;;;11.98;4.28;;;16.30;99.90;;;;;;5083961;28;20079;-57
2023/08/01 08:15:02;;;;;;;21.30;4.82;;;16.30;99.90;;;;;;5082188;28;20055;-57
2023/08/01 08:17:28;;;;;;;15.63;4.30;;;16.30;99.90;;;;;;5082589;28;20047;-57
2023/08/01 08:19:54;;;;;;;12.55;4.40;;;16.40;99.90;;;;;;5081580;28;20148;-58
2023/08/01 08:22:20;;;;;;;14.77;4.75;;;16.50;99.90;;;;;;5082818;28;20068;-58
2023/08/01 08:24:45;;;;;;;14.57;4.80;;;16.60;99.90;;;;;;5082057;28;20047;-58
2023/08/01 08:27:11;;;;;;;16.13;4.95;;;16.60;99.90;;;;;;5082257;28;20099;-58
2023/08/01 08:29:37;;;;;;;16.45;4.43;;;16.70;99.90;;;;;;5083798;28;20120;-58
2023/08/01 08:32:03;;;;;;;18.15;4.35;;;16.70;99.90;;;;;;5081856;28;20040;-59
2023/08/01 08:34:28;;;;;;;13.82;4.40;;;16.80;99.90;;;;;;5083883;28;20037;-59
2023/08/01 08:36:54;;;;;;;18.48;4.35;;;16.90;99.90;;;;;;5082681;28;20440;-58
2023/08/01 08:39:20;;;;;;;13.00;4.03;;;16.90;99.90;;;;;;5081376;28;20080;-59
2023/08/01 08:41:52;;;;;;;11.05;3.30;;;16.90;99.90;;;;;;5083004;28;20052;-58
2023/08/01 08:44:20;;;;;;;15.30;3.97;;;16.80;99.90;;;;;;5081899;28;20079;-58
2023/08/01 08:46:51;;;;;;;11.45;3.55;;;16.70;99.90;;;;;;5083467;28;20041;-59
2023/08/01 08:49:21;;;;;;;11.32;3.88;;;16.60;99.90;;;;;;5081797;28;20066;-59
2023/08/01 08:51:48;;;;;;;15.13;3.83;;;16.60;99.90;;;;;;5083235;28;20074;-58
2023/08/01 08:54:15;;;;;;;12.60;4.00;;;16.60;99.90;;;;;;5082537;28;20037;-58
2023/08/01 08:56:41;;;;;;;17.67;4.05;;;16.50;99.90;;;;;;5082219;28;20541;-57
2023/08/01 08:59:10;;;;;;;15.13;3.67;;;16.60;99.90;;;;;;5082969;28;20041;-59
2023/08/01 09:01:36;;;;;;;12.80;4.18;;;16.60;99.90;;;;;;5081691;28;20048;-57
2023/08/01 09:04:02;;;;;;;14.95;4.63;;;16.60;99.90;;;;;;5083152;28;20040;-58
2023/08/01 09:06:44;;;;;;;14.27;4.50;;;16.60;99.90;;;;;;5081186;28;20040;-58
2023/08/01 09:09:12;;;;;;;15.75;4.65;;;16.60;99.90;;;;;;5082347;28;20052;-58
2023/08/01 09:11:43;;;;;;;12.95;4.38;;;16.60;99.90;;;;;;5081757;28;20048;-58
2023/08/01 09:14:09;;;;;;;12.93;4.43;;;16.50;99.90;;;;;;5081732;28;20044;-59
2023/08/01 09:16:36;;;;;;;11.68;4.65;;;16.40;99.90;;;;;;5082828;28;20089;-58
2023/08/01 09:19:02;;;;;;;266.48;40.75;;;16.50;99.90;;;;;;5081021;28;20048;-58
2023/08/01 09:21:35;;;;;;;64.80;14.60;;;16.50;99.90;;;;;;5081680;28;20051;-58
2023/08/01 09:24:12;;;;;;;18.02;5.63;;;16.50;99.90;;;;;;5080254;28;20048;-56
2023/08/01 09:26:38;;;;;;;28.17;7.38;;;16.60;99.90;;;;;;5081580;28;20052;-58
2023/08/01 09:29:04;;;;;;;14.60;5.18;;;16.60;99.90;;;;;;5082578;28;20041;-58
2023/08/01 09:31:38;;;;;;;16.98;4.90;;;16.70;99.90;;;;;;5081315;28;20476;-58
2023/08/01 09:34:06;;;;;;;14.27;4.63;;;16.70;99.90;;;;;;5081389;28;20041;-57
2023/08/01 09:36:33;;;;;;;14.50;5.00;;;16.70;99.90;;;;;;5080894;28;20044;-57
2023/08/01 09:39:04;;;;;;;14.60;4.53;;;16.70;99.90;;;;;;5082265;28;20037;-59
2023/08/01 09:41:30;;;;;;;16.70;4.55;;;16.70;99.90;;;;;;5081697;28;20048;-58
2023/08/01 09:43:57;;;;;;;11.25;4.30;;;16.70;99.90;;;;;;5080833;28;20041;-59
2023/08/01 09:46:24;;;;;;;13.13;4.15;;;16.70;99.90;;;;;;5082133;28;20045;-58
2023/08/01 09:48:50;;;;;;;12.18;3.83;;;16.70;99.90;;;;;;5080664;28;20044;-58
2023/08/01 09:51:17;;;;;;;10.60;3.08;;;16.60;99.90;;;;;;5082373;28;20119;-58
2023/08/01 09:53:54;;;;;;;7.13;2.20;;;16.60;99.90;;;;;;5079442;28;20391;-57
2023/08/01 09:56:21;;;;;;;8.32;2.78;;;16.50;99.90;;;;;;5081445;28;20075;-57
2023/08/01 09:58:48;;;;;;;9.43;2.90;;;16.40;99.90;;;;;;5081764;28;20033;-58
2023/08/01 10:01:15;;;;;;;8.80;2.85;;;16.30;99.90;;;;;;5080471;28;20044;-58
2023/08/01 10:03:49;;;;;;;5.40;2.45;;;16.30;99.90;;;;;;5081775;28;20068;-58
2023/08/01 10:06:19;;;;;;;7.13;2.70;;;16.20;99.90;;;;;;5079984;28;20040;-58
2023/08/01 10:08:46;;;;;;;8.20;2.90;;;16.20;99.90;;;;;;5080363;28;20058;-57
2023/08/01 10:11:17;;;;;;;6.57;2.10;;;16.20;99.90;;;;;;5080647;28;20052;-57
2023/08/01 10:13:43;;;;;;;11.48;3.30;;;16.20;99.90;;;;;;5079212;28;20037;-57
2023/08/01 10:16:10;;;;;;;9.05;3.20;;;16.20;99.90;;;;;;5081517;28;20138;-57
2023/08/01 10:18:37;;;;;;;7.95;2.40;;;16.20;99.90;;;;;;5080130;28;20488;-57
2023/08/01 10:21:08;;;;;;;9.68;2.85;;;16.20;99.90;;;;;;5080289;28;20040;-57
2023/08/01 10:23:36;;;;;;;6.45;2.30;;;16.20;99.90;;;;;;5079035;28;20041;-57
2023/08/01 10:26:05;;;;;;;6.40;2.60;;;16.20;99.90;;;;;;5080079;28;20108;-57
2023/08/01 10:28:36;;;;;;;9.55;3.10;;;16.20;99.90;;;;;;5080912;28;20056;-58
2023/08/01 10:31:11;;;;;;;14.07;3.42;;;16.30;99.90;;;;;;5080330;28;20055;-58
2023/08/01 10:33:42;;;;;;;12.85;3.65;;;16.30;99.90;;;;;;5081049;28;20150;-57
2023/08/01 10:36:27;;;;;;;10.98;3.67;;;16.40;99.90;;;;;;5079560;28;20040;-59
2023/08/01 10:38:57;;;;;;;10.27;3.42;;;16.60;99.90;;;;;;5081303;28;20051;-58
2023/08/01 10:41:33;;;;;;;31.25;4.78;;;16.70;99.90;;;;;;5080418;28;20044;-59
2023/08/01 10:44:13;;;;;;;14.40;3.75;;;16.70;99.90;;;;;;5079773;28;20052;-60
2023/08/01 10:46:50;;;;;;;10.32;2.63;;;16.70;99.90;;;;;;5079793;28;20083;-59
2023/08/01 10:49:17;;;;;;;7.82;2.50;;;16.50;99.90;;;;;;5079479;28;20044;-59
2023/08/01 10:51:44;;;;;;;8.35;2.50;;;16.40;99.90;;;;;;5081123;28;20045;-61
2023/08/01 10:54:23;;;;;;;5.68;2.15;;;16.30;99.90;;;;;;5080271;28;20044;-59
2023/08/01 10:56:51;;;;;;;8.50;2.05;;;16.20;99.90;;;;;;5079677;28;20056;-59
2023/08/01 10:59:17;;;;;;;8.55;2.40;;;16.10;99.90;;;;;;5080991;28;20134;-59
2023/08/01 11:01:48;;;;;;;9.10;2.38;;;16.00;99.90;;;;;;5079360;28;20033;-58
2023/08/01 11:04:18;;;;;;;9.32;2.60;;;16.00;99.90;;;;;;5081302;28;20411;-57
2023/08/01 11:06:49;;;;;;;10.32;2.95;;;16.00;99.90;;;;;;5079556;28;20049;-59
2023/08/01 11:09:23;;;;;;;11.68;2.80;;;16.00;99.90;;;;;;5080061;28;20040;-59
2023/08/01 11:11:55;;;;;;;8.90;2.70;;;16.10;99.90;;;;;;5080449;28;20050;-58
2023/08/01 11:14:25;;;;;;;11.60;3.00;;;16.20;99.90;;;;;;5078210;28;20717;-58
2023/08/01 11:16:54;;;;;;;13.48;3.10;;;16.30;99.90;;;;;;5080911;28;20036;-57
2023/08/01 11:19:27;;;;;;;11.60;3.50;;;16.40;99.90;;;;;;5079288;28;20041;-57
2023/08/01 11:21:56;;;;;;;9.70;3.60;;;16.50;99.90;;;;;;5080286;28;20503;-57
2023/08/01 11:24:23;;;;;;;12.98;3.97;;;16.70;99.90;;;;;;5078882;28;20056;-57
2023/08/01 11:26:50;;;;;;;13.20;3.95;;;16.90;99.90;;;;;;5079115;28;20041;-57
2023/08/01 11:29:17;;;;;;;12.75;3.95;;;17.10;99.90;;;;;;5080543;28;20033;-57
2023/08/01 11:31:59;;;;;;;17.08;4.18;;;17.30;99.90;;;;;;5078826;28;20071;-57
2023/08/01 11:34:25;;;;;;;9.20;3.58;;;17.50;99.90;;;;;;5082627;28;20059;-57
2023/08/01 11:36:52;;;;;;;15.23;3.72;;;17.60;99.90;;;;;;5083686;28;20052;-57
2023/08/01 11:39:18;;;;;;;13.38;3.60;;;17.70;99.90;;;;;;5083982;28;20037;-57
2023/08/01 11:41:44;;;;;;;10.05;3.60;;;17.80;99.90;;;;;;5084126;28;20071;-57
2023/08/01 11:44:11;;;;;;;16.42;4.35;;;17.90;99.90;;;;;;5083114;28;20037;-56
2023/08/01 11:46:38;;;;;;;14.70;3.55;;;18.10;99.90;;;;;;5084528;28;20072;-59
2023/08/01 11:49:08;;;;;;;10.95;3.35;;;18.20;99.90;;;;;;5082937;28;20053;-59
2023/08/01 11:51:44;;;;;;;12.48;3.28;;;18.30;99.90;;;;;;5084850;28;20041;-59
2023/08/01 11:54:11;;;;;;;8.65;3.30;;;18.40;99.90;;;;;;5083704;28;20052;-58
2023/08/01 11:56:38;;;;;;;13.70;3.83;;;18.30;99.90;;;;;;5083274;28;20092;-59
2023/08/01 11:59:11;;;;;;;12.45;3.10;;;18.30;99.90;;;;;;5084009;28;20083;-59
2023/08/01 12:01:45;;;;;;;12.80;3.38;;;18.30;99.90;;;;;;5082688;28;20040;-59
2023/08/01 12:04:11;;;;;;;12.52;3.30;;;18.40;99.90;;;;;;5084533;28;20045;-59
2023/08/01 12:06:38;;;;;;;8.88;3.10;;;18.50;99.90;;;;;;5082867;28;20045;-55
2023/08/01 12:09:12;;;;;;;8.93;3.03;;;18.70;99.90;;;;;;5083467;28;20057;-55
2023/08/01 12:11:39;;;;;;;9.57;2.80;;;18.80;99.90;;;;;;5083356;28;20082;-55
2023/08/01 12:14:12;;;;;;;9.13;3.03;;;19.00;99.90;;;;;;5082722;28;20033;-55
2023/08/01 12:16:40;;;;;;;9.23;2.85;;;19.00;99.90;;;;;;5084121;28;20037;-55
2023/08/01 12:19:07;;;;;;;9.75;2.60;;;19.20;99.90;;;;;;5082210;28;20044;-55
2023/08/01 12:21:33;;;;;;;6.70;2.65;;;19.20;99.90;;;;;;5084281;28;20040;-55
2023/08/01 12:23:59;;;;;;;9.55;2.38;;;19.20;99.90;;;;;;5082718;28;20068;-55
2023/08/01 12:26:25;;;;;;;5.70;2.17;;;19.20;99.90;;;;;;5082713;28;20067;-56
2023/08/01 12:28:51;;;;;;;7.80;1.85;;;19.10;99.90;;;;;;5083441;28;20032;-56
2023/08/01 12:31:21;;;;;;;8.23;2.28;;;19.10;99.90;;;;;;5082323;28;20071;-55
2023/08/01 12:33:47;;;;;;;10.73;2.58;;;18.90;99.90;;;;;;5083721;28;20061;-55
2023/08/01 12:36:13;;;;;;;11.15;2.65;;;18.90;99.90;;;;;;5081815;28;20044;-56
2023/08/01 12:38:39;;;;;;;6.72;2.03;;;19.00;99.90;;;;;;5083705;28;20052;-56